createdAt,value
2017-09-29T00:01:42.438Z,13.40
2017-09-29T00:04:09.985Z,11.95
2017-09-29T00:06:38.247Z,10.95
2017-09-29T00:09:05.766Z,11.15
2017-09-29T00:11:33.280Z,12.00
2017-09-29T00:14:01.566Z,10.45
2017-09-29T00:16:29.260Z,13.80
2017-09-29T00:18:56.775Z,9.18
2017-09-29T00:21:25.087Z,12.90
2017-09-29T00:23:52.613Z,14.15
2017-09-29T00:26:20.869Z,8.73
2017-09-29T00:28:48.382Z,10.68
2017-09-29T00:31:15.878Z,11.50
2017-09-29T00:33:43.411Z,9.68
2017-09-29T00:36:10.914Z,12.60
2017-09-29T00:38:38.436Z,19.17
2017-09-29T00:41:05.955Z,15.13
2017-09-29T00:43:33.441Z,9.93
2017-09-29T00:46:00.970Z,10.32
2017-09-29T00:48:29.225Z,10.20
2017-09-29T00:50:56.742Z,11.88
2017-09-29T00:53:24.243Z,11.38
2017-09-29T00:55:52.542Z,10.35
2017-09-29T00:58:20.809Z,11.85
2017-09-29T01:00:49.098Z,11.55
2017-09-29T01:03:16.615Z,11.48
2017-09-29T01:05:44.136Z,11.80
2017-09-29T01:08:11.639Z,14.50
2017-09-29T01:10:39.161Z,15.10
2017-09-29T01:13:06.681Z,13.95
2017-09-29T01:15:34.201Z,12.90
2017-09-29T01:18:01.694Z,12.82
2017-09-29T01:20:29.975Z,9.50
2017-09-29T01:22:58.234Z,15.55
2017-09-29T01:25:25.786Z,11.20
2017-09-29T01:27:53.283Z,14.02
2017-09-29T01:30:20.798Z,13.02
2017-09-29T01:32:48.866Z,10.80
2017-09-29T01:35:16.365Z,13.95
2017-09-29T01:37:44.649Z,12.65
2017-09-29T01:40:12.161Z,13.82
2017-09-29T01:42:39.687Z,11.07
2017-09-29T01:45:07.186Z,11.07
2017-09-29T01:47:34.704Z,13.48
2017-09-29T01:50:02.197Z,8.68
2017-09-29T01:52:29.719Z,13.82
2017-09-29T01:54:57.217Z,12.63
2017-09-29T01:57:24.749Z,14.50
2017-09-29T01:59:52.260Z,12.40
2017-09-29T02:02:20.551Z,8.75
2017-09-29T02:04:48.822Z,10.73
2017-09-29T02:07:17.106Z,11.65
2017-09-29T02:09:45.371Z,11.07
2017-09-29T02:12:13.650Z,10.52
2017-09-29T02:14:41.925Z,10.25
2017-09-29T02:17:10.210Z,13.57
2017-09-29T02:19:38.479Z,12.57
2017-09-29T02:22:06.765Z,16.70
2017-09-29T02:24:35.032Z,10.13
2017-09-29T02:27:03.323Z,16.50
2017-09-29T02:29:30.835Z,10.48
2017-09-29T02:31:58.366Z,14.48
2017-09-29T02:34:25.887Z,10.63
2017-09-29T02:36:54.162Z,13.10
2017-09-29T02:39:22.451Z,9.75
2017-09-29T02:41:50.717Z,10.88
2017-09-29T02:44:19.002Z,10.25
2017-09-29T02:46:47.278Z,11.00
2017-09-29T02:49:15.566Z,13.62
2017-09-29T02:51:43.834Z,13.70
2017-09-29T02:54:12.122Z,14.48
2017-09-29T02:56:44.846Z,11.95
2017-09-29T02:59:13.723Z,10.98
2017-09-29T03:01:43.858Z,9.98
2017-09-29T03:04:12.706Z,13.05
2017-09-29T03:06:40.210Z,14.30
2017-09-29T03:09:07.742Z,13.23
2017-09-29T03:11:35.273Z,12.02
2017-09-29T03:14:03.556Z,13.20
2017-09-29T03:16:31.069Z,11.60
2017-09-29T03:18:58.596Z,10.05
2017-09-29T03:21:26.097Z,10.63
2017-09-29T03:23:53.614Z,11.20
2017-09-29T03:26:21.128Z,12.05
2017-09-29T03:28:48.658Z,18.05
2017-09-29T03:31:16.158Z,8.60
2017-09-29T03:33:44.426Z,8.65
2017-09-29T03:36:12.714Z,12.25
2017-09-29T03:38:40.299Z,9.95
2017-09-29T03:41:07.823Z,13.25
2017-09-29T03:43:36.095Z,9.18
2017-09-29T03:46:04.377Z,11.38
2017-09-29T03:48:32.637Z,11.02
2017-09-29T03:51:00.786Z,10.82
2017-09-29T03:53:29.490Z,16.25
2017-09-29T03:55:58.058Z,12.43
2017-09-29T03:58:26.150Z,7.87
2017-09-29T04:00:53.675Z,12.10
2017-09-29T04:03:21.165Z,14.77
2017-09-29T04:05:48.681Z,8.80
2017-09-29T04:08:16.186Z,12.48
2017-09-29T04:10:43.705Z,10.35
2017-09-29T04:13:11.221Z,13.77
2017-09-29T04:15:39.498Z,9.82
2017-09-29T04:18:07.771Z,10.05
2017-09-29T04:20:35.298Z,10.52
2017-09-29T04:23:02.802Z,10.15
2017-09-29T04:25:31.107Z,10.13
2017-09-29T04:27:58.603Z,11.27
2017-09-29T04:30:26.098Z,9.63
2017-09-29T04:32:54.380Z,10.10
2017-09-29T04:35:22.642Z,12.37
2017-09-29T04:37:50.927Z,8.63
2017-09-29T04:40:19.196Z,11.38
2017-09-29T04:42:47.788Z,9.18
2017-09-29T04:45:16.054Z,10.82
2017-09-29T04:47:44.331Z,13.10
2017-09-29T04:50:11.830Z,8.77
2017-09-29T04:52:39.358Z,11.98
2017-09-29T04:55:07.630Z,9.90
2017-09-29T04:57:35.914Z,10.23
2017-09-29T05:00:04.181Z,12.10
2017-09-29T05:02:32.471Z,14.27
2017-09-29T05:05:00.750Z,13.88
2017-09-29T05:07:29.041Z,8.80
2017-09-29T05:09:56.543Z,11.60
2017-09-29T05:12:24.070Z,13.27
2017-09-29T05:14:51.570Z,10.65
2017-09-29T05:17:19.087Z,12.35
2017-09-29T05:19:46.586Z,11.60
2017-09-29T05:22:14.884Z,11.35
2017-09-29T05:24:42.382Z,11.35
2017-09-29T05:27:10.715Z,22.00
2017-09-29T05:29:38.213Z,12.68
2017-09-29T05:32:06.490Z,10.98
2017-09-29T05:34:34.791Z,15.10
2017-09-29T05:37:02.302Z,13.68
2017-09-29T05:39:29.824Z,8.95
2017-09-29T05:41:57.323Z,11.98
2017-09-29T05:44:24.838Z,10.30
2017-09-29T05:46:52.339Z,14.82
2017-09-29T05:49:19.880Z,10.00
2017-09-29T05:51:47.386Z,11.80
2017-09-29T05:54:15.665Z,11.63
2017-09-29T05:56:43.161Z,12.82
2017-09-29T05:59:10.682Z,19.87
2017-09-29T06:01:38.960Z,15.73
2017-09-29T06:04:07.265Z,19.52
2017-09-29T06:06:34.774Z,14.02
2017-09-29T06:09:02.298Z,11.52
2017-09-29T06:11:29.818Z,12.27
2017-09-29T06:13:58.111Z,13.25
2017-09-29T06:16:25.619Z,17.23
2017-09-29T06:18:53.138Z,15.85
2017-09-29T06:21:20.658Z,13.50
2017-09-29T06:23:48.970Z,10.93
2017-09-29T06:26:16.486Z,13.05
2017-09-29T06:28:44.015Z,11.85
2017-09-29T06:31:11.546Z,17.58
2017-09-29T06:33:39.051Z,11.48
2017-09-29T06:36:06.574Z,13.55
2017-09-29T06:38:34.086Z,16.75
2017-09-29T06:41:01.611Z,12.55
2017-09-29T06:43:29.153Z,11.02
2017-09-29T06:45:56.703Z,9.90
2017-09-29T06:48:24.216Z,11.73
2017-09-29T06:50:51.738Z,10.07
2017-09-29T06:53:19.246Z,16.12
2017-09-29T06:55:47.527Z,10.90
2017-09-29T06:58:15.799Z,14.20
2017-09-29T07:00:43.320Z,10.57
2017-09-29T07:03:10.827Z,11.57
2017-09-29T07:05:39.127Z,12.27
2017-09-29T07:08:06.631Z,8.63
2017-09-29T07:10:34.157Z,9.20
2017-09-29T07:13:01.670Z,14.25
2017-09-29T07:15:29.195Z,9.68
2017-09-29T07:17:56.699Z,9.13
2017-09-29T07:20:24.978Z,14.15
2017-09-29T07:22:53.250Z,12.70
2017-09-29T07:25:23.681Z,9.48
2017-09-29T07:27:53.514Z,12.52
2017-09-29T07:30:21.448Z,9.60
2017-09-29T07:32:48.975Z,13.40
2017-09-29T07:35:16.467Z,6.82
2017-09-29T07:37:44.010Z,11.05
2017-09-29T07:40:11.514Z,11.95
2017-09-29T07:42:39.162Z,12.50
2017-09-29T07:45:07.433Z,10.75
2017-09-29T07:47:34.961Z,6.75
2017-09-29T07:50:02.513Z,6.60
2017-09-29T07:52:30.043Z,10.68
2017-09-29T07:54:57.534Z,7.18
2017-09-29T07:57:25.066Z,10.45
2017-09-29T07:59:53.327Z,7.22
2017-09-29T08:02:21.610Z,11.88
2017-09-29T08:04:49.885Z,9.10
2017-09-29T08:07:17.410Z,7.50
2017-09-29T08:09:45.252Z,9.10
2017-09-29T08:12:12.791Z,14.35
2017-09-29T08:14:40.302Z,12.63
2017-09-29T08:17:08.583Z,9.32
2017-09-29T08:19:36.854Z,11.07
2017-09-29T08:22:05.134Z,11.32
2017-09-29T08:24:33.401Z,10.27
2017-09-29T08:27:00.959Z,13.90
2017-09-29T08:29:28.469Z,7.57
2017-09-29T08:31:55.991Z,8.93
2017-09-29T08:34:24.290Z,10.15
2017-09-29T08:36:51.809Z,12.95
2017-09-29T08:39:19.321Z,13.05
2017-09-29T08:41:46.827Z,11.68
2017-09-29T08:44:14.372Z,7.82
2017-09-29T08:46:41.858Z,12.90
2017-09-29T08:49:10.162Z,13.10
2017-09-29T08:51:37.662Z,19.52
2017-09-29T08:54:05.174Z,11.38
2017-09-29T08:56:32.704Z,10.82
2017-09-29T08:59:00.239Z,15.77
2017-09-29T09:01:28.545Z,14.57
2017-09-29T09:03:56.066Z,15.13
2017-09-29T09:06:23.586Z,15.40
2017-09-29T09:08:51.115Z,26.37
2017-09-29T09:11:18.621Z,13.50
2017-09-29T09:13:46.143Z,23.38
2017-09-29T09:16:13.659Z,19.25
2017-09-29T09:18:41.191Z,20.25
2017-09-29T09:21:08.711Z,24.65
2017-09-29T09:23:36.238Z,20.62
2017-09-29T09:26:03.738Z,23.65
2017-09-29T09:28:32.015Z,23.67
2017-09-29T09:30:59.547Z,32.20
2017-09-29T09:33:27.050Z,27.77
2017-09-29T09:35:55.333Z,44.95
2017-09-29T09:38:22.858Z,29.60
2017-09-29T09:40:50.382Z,22.05
2017-09-29T09:43:17.892Z,27.80
2017-09-29T09:45:46.187Z,22.30
2017-09-29T09:48:14.470Z,22.27
2017-09-29T09:50:41.990Z,19.02
2017-09-29T09:53:09.513Z,20.50
2017-09-29T09:55:37.047Z,30.08
2017-09-29T09:58:04.561Z,33.08
2017-09-29T10:00:32.083Z,26.30
2017-09-29T10:02:59.601Z,29.75
2017-09-29T10:05:27.126Z,32.85
2017-09-29T10:07:54.639Z,28.20
2017-09-29T10:10:22.175Z,24.02
2017-09-29T10:12:49.686Z,23.35
2017-09-29T10:15:17.218Z,23.48
2017-09-29T10:17:44.718Z,23.17
2017-09-29T10:20:12.240Z,24.83
2017-09-29T10:22:39.766Z,21.30
2017-09-29T10:25:07.298Z,21.83
2017-09-29T10:27:34.811Z,22.85
2017-09-29T10:30:02.314Z,20.20
2017-09-29T10:32:29.830Z,22.62
2017-09-29T10:34:58.102Z,21.80
2017-09-29T10:37:25.951Z,27.98
2017-09-29T10:39:53.459Z,21.87
2017-09-29T10:42:21.741Z,25.80
2017-09-29T10:44:49.246Z,26.67
2017-09-29T10:47:16.771Z,22.83
2017-09-29T10:49:44.330Z,23.17
2017-09-29T10:52:11.854Z,25.30
2017-09-29T10:54:39.373Z,24.37
2017-09-29T10:57:06.901Z,20.27
2017-09-29T10:59:35.177Z,20.77
2017-09-29T11:02:03.470Z,23.55
2017-09-29T11:04:30.978Z,23.23
2017-09-29T11:06:58.515Z,21.77
2017-09-29T11:09:26.026Z,22.17
2017-09-29T11:11:54.330Z,27.30
2017-09-29T11:14:21.862Z,23.15
2017-09-29T11:16:50.150Z,23.05
2017-09-29T11:19:18.432Z,26.95
2017-09-29T11:21:45.994Z,21.95
2017-09-29T11:24:13.502Z,20.80
2017-09-29T11:26:41.008Z,20.35
2017-09-29T11:29:09.310Z,22.45
2017-09-29T11:31:36.832Z,18.23
2017-09-29T11:34:04.355Z,25.48
2017-09-29T11:36:31.890Z,22.08
2017-09-29T11:38:59.418Z,21.52
2017-09-29T11:41:27.705Z,24.35
2017-09-29T11:43:55.241Z,20.48
2017-09-29T11:46:22.787Z,27.67
2017-09-29T11:48:50.307Z,22.98
2017-09-29T11:51:17.822Z,23.48
2017-09-29T11:53:45.358Z,24.45
2017-09-29T11:56:12.874Z,24.95
2017-09-29T11:58:40.411Z,21.90
2017-09-29T12:01:08.694Z,25.83
2017-09-29T12:03:36.237Z,26.75
2017-09-29T12:06:03.743Z,26.15
2017-09-29T12:08:31.270Z,27.08
2017-09-29T12:10:58.780Z,26.20
2017-09-29T12:13:26.310Z,25.20
2017-09-29T12:15:53.835Z,25.37
2017-09-29T12:18:22.121Z,25.75
2017-09-29T12:20:50.395Z,25.20
2017-09-29T12:23:17.970Z,27.30
2017-09-29T12:25:45.473Z,29.20
2017-09-29T12:28:12.991Z,25.83
2017-09-29T12:30:41.250Z,26.70
2017-09-29T12:33:08.771Z,28.02
2017-09-29T12:35:36.304Z,27.80
2017-09-29T12:38:03.819Z,24.42
2017-09-29T12:40:32.115Z,21.75
2017-09-29T12:42:59.638Z,24.65
2017-09-29T12:45:27.158Z,26.85
2017-09-29T12:47:54.683Z,23.00
2017-09-29T12:50:22.962Z,23.45
2017-09-29T12:52:51.268Z,27.50
2017-09-29T12:55:18.826Z,26.83
2017-09-29T12:57:46.341Z,24.45
2017-09-29T13:00:13.888Z,25.12
2017-09-29T13:02:41.398Z,25.12
2017-09-29T13:05:08.918Z,24.23
2017-09-29T13:07:37.210Z,22.30
2017-09-29T13:10:05.515Z,24.05
2017-09-29T13:12:33.032Z,16.60
2017-09-29T13:15:00.597Z,22.27
2017-09-29T13:17:28.873Z,29.58
2017-09-29T13:19:57.172Z,22.48
2017-09-29T13:22:24.678Z,23.25
2017-09-29T13:24:52.186Z,23.23
2017-09-29T13:27:19.708Z,29.55
2017-09-29T13:29:47.251Z,25.08
2017-09-29T13:32:14.790Z,22.98
2017-09-29T13:34:42.306Z,21.70
2017-09-29T13:37:10.598Z,21.80
2017-09-29T13:39:38.861Z,20.60
2017-09-29T13:42:07.148Z,24.42
2017-09-29T13:44:35.448Z,19.55
2017-09-29T13:47:02.973Z,20.77
2017-09-29T13:49:31.258Z,18.98
2017-09-29T13:51:59.589Z,19.92
2017-09-29T13:54:27.123Z,20.80
2017-09-29T13:56:54.664Z,21.55
2017-09-29T13:59:22.939Z,21.87
2017-09-29T14:01:50.461Z,18.35
2017-09-29T14:04:17.954Z,14.63
2017-09-29T14:06:46.262Z,21.05
2017-09-29T14:09:13.762Z,19.52
2017-09-29T14:11:41.283Z,21.85
2017-09-29T14:14:08.789Z,23.92
2017-09-29T14:16:36.318Z,22.45
2017-09-29T14:19:03.822Z,19.37
2017-09-29T14:21:32.123Z,21.60
2017-09-29T14:23:59.643Z,19.92
2017-09-29T14:26:27.174Z,20.67
2017-09-29T14:28:54.678Z,21.37
2017-09-29T14:31:22.239Z,21.83
2017-09-29T14:33:50.532Z,22.17
2017-09-29T14:36:18.061Z,20.35
2017-09-29T14:38:45.570Z,20.58
2017-09-29T14:41:13.127Z,23.08
2017-09-29T14:43:40.641Z,20.85
2017-09-29T14:46:08.172Z,21.15
2017-09-29T14:48:35.670Z,21.80
2017-09-29T14:51:03.966Z,27.10
2017-09-29T14:53:31.467Z,22.98
2017-09-29T14:55:58.995Z,25.73
2017-09-29T14:58:26.498Z,25.73
2017-09-29T15:00:54.022Z,23.10
2017-09-29T15:03:21.528Z,20.12
2017-09-29T15:05:49.075Z,21.80
2017-09-29T15:08:16.591Z,23.85
2017-09-29T15:10:44.118Z,19.75
2017-09-29T15:13:12.394Z,19.05
2017-09-29T15:15:40.674Z,21.85
2017-09-29T15:18:08.964Z,28.50
2017-09-29T15:20:36.482Z,25.20
2017-09-29T15:23:04.002Z,25.75
2017-09-29T15:25:31.515Z,23.90
2017-09-29T15:27:59.038Z,28.10
2017-09-29T15:30:26.547Z,26.55
2017-09-29T15:32:54.857Z,25.35
2017-09-29T15:35:22.374Z,23.08
2017-09-29T15:37:50.659Z,24.50
2017-09-29T15:40:18.938Z,27.90
2017-09-29T15:42:47.234Z,22.65
2017-09-29T15:45:14.737Z,23.45
2017-09-29T15:47:42.261Z,19.05
2017-09-29T15:50:09.764Z,22.40
2017-09-29T15:52:37.296Z,22.55
2017-09-29T15:55:04.807Z,22.05
2017-09-29T15:57:33.326Z,21.55
2017-09-29T16:00:00.835Z,21.20
2017-09-29T16:02:30.787Z,22.27
2017-09-29T16:05:04.883Z,20.85
2017-09-29T16:07:32.407Z,29.52
2017-09-29T16:10:00.574Z,22.70
2017-09-29T16:12:28.101Z,23.73
2017-09-29T16:14:55.611Z,24.77
2017-09-29T16:17:23.138Z,21.98
2017-09-29T16:19:50.655Z,22.00
2017-09-29T16:22:18.935Z,26.17
2017-09-29T16:24:46.437Z,20.45
2017-09-29T16:27:13.956Z,22.00
2017-09-29T16:29:41.457Z,20.92
2017-09-29T16:32:09.761Z,23.20
2017-09-29T16:34:37.272Z,19.60
2017-09-29T16:37:04.819Z,23.58
2017-09-29T16:39:32.322Z,23.75
2017-09-29T16:41:59.846Z,19.02
2017-09-29T16:44:27.346Z,26.40
2017-09-29T16:46:54.866Z,29.25
2017-09-29T16:49:22.372Z,21.27
2017-09-29T16:51:49.903Z,22.17
2017-09-29T16:54:17.408Z,24.00
2017-09-29T16:56:45.768Z,25.02
2017-09-29T16:59:14.055Z,22.05
2017-09-29T17:01:42.342Z,21.65
2017-09-29T17:04:09.854Z,21.17
2017-09-29T17:06:37.383Z,20.52
2017-09-29T17:09:04.928Z,27.45
2017-09-29T17:11:32.470Z,22.40
2017-09-29T17:13:59.989Z,21.50
2017-09-29T17:16:27.526Z,21.90
2017-09-29T17:18:55.044Z,24.92
2017-09-29T17:21:23.330Z,24.15
2017-09-29T17:23:50.864Z,22.27
2017-09-29T17:26:18.388Z,27.67
2017-09-29T17:28:45.899Z,24.87
2017-09-29T17:31:14.168Z,27.30
2017-09-29T17:33:42.459Z,24.52
2017-09-29T17:36:10.726Z,24.85
2017-09-29T17:38:39.006Z,22.33
2017-09-29T17:41:07.281Z,22.48
2017-09-29T17:43:35.558Z,23.40
2017-09-29T17:46:03.829Z,22.37
2017-09-29T17:48:32.122Z,31.05
2017-09-29T17:50:59.634Z,21.75
2017-09-29T17:53:27.162Z,25.85
2017-09-29T17:55:54.670Z,25.62
2017-09-29T17:58:22.190Z,22.15
2017-09-29T18:00:49.686Z,25.40
2017-09-29T18:03:17.206Z,29.70
2017-09-29T18:05:44.801Z,26.80
2017-09-29T18:08:12.330Z,23.55
2017-09-29T18:10:39.838Z,24.90
2017-09-29T18:13:08.121Z,27.67
2017-09-29T18:15:36.406Z,24.10
2017-09-29T18:18:04.711Z,28.77
2017-09-29T18:20:32.232Z,43.85
2017-09-29T18:23:01.529Z,26.25
2017-09-29T18:25:29.810Z,31.37
2017-09-29T18:27:58.102Z,29.42
2017-09-29T18:30:25.623Z,24.65
2017-09-29T18:32:53.156Z,27.73
2017-09-29T18:35:20.665Z,29.40
2017-09-29T18:37:48.953Z,31.30
2017-09-29T18:40:20.954Z,27.85
2017-09-29T18:42:49.051Z,30.88
2017-09-29T18:45:16.570Z,29.12
2017-09-29T18:47:44.096Z,40.65
2017-09-29T18:50:12.359Z,31.00
2017-09-29T18:52:39.883Z,30.48
2017-09-29T18:55:07.391Z,28.08
2017-09-29T18:57:34.921Z,31.05
2017-09-29T19:00:03.407Z,32.40
2017-09-29T19:02:30.951Z,30.58
2017-09-29T19:04:58.463Z,32.33
2017-09-29T19:07:26.759Z,26.65
2017-09-29T19:09:54.263Z,32.17
2017-09-29T19:12:21.779Z,33.80
2017-09-29T19:14:49.299Z,27.80
2017-09-29T19:17:17.581Z,31.77
2017-09-29T19:19:45.856Z,30.67
2017-09-29T19:22:13.413Z,31.70
2017-09-29T19:24:40.938Z,28.80
2017-09-29T19:27:08.450Z,31.50
2017-09-29T19:29:35.982Z,27.23
2017-09-29T19:32:03.501Z,30.73
2017-09-29T19:34:31.045Z,32.88
2017-09-29T19:36:58.569Z,31.45
2017-09-29T19:39:26.932Z,30.85
2017-09-29T19:41:54.470Z,29.02
2017-09-29T19:44:22.833Z,36.35
2017-09-29T19:46:50.334Z,28.75
2017-09-29T19:49:17.893Z,28.87
2017-09-29T19:51:45.510Z,27.25
2017-09-29T19:54:13.039Z,32.55
2017-09-29T19:56:41.331Z,44.20
2017-09-29T19:59:08.902Z,34.83
2017-09-29T20:01:36.442Z,33.08
2017-09-29T20:04:04.807Z,33.63
2017-09-29T20:06:33.085Z,30.85
2017-09-29T20:09:01.370Z,39.13
2017-09-29T20:11:29.646Z,35.85
2017-09-29T20:13:57.937Z,43.45
2017-09-29T20:16:25.440Z,36.30
2017-09-29T20:18:53.745Z,33.22
2017-09-29T20:21:21.275Z,32.65
2017-09-29T20:23:48.813Z,34.20
2017-09-29T20:26:16.333Z,30.37
2017-09-29T20:28:44.626Z,35.83
2017-09-29T20:31:12.135Z,39.00
2017-09-29T20:33:39.662Z,33.85
2017-09-29T20:36:07.162Z,33.45
2017-09-29T20:38:34.692Z,31.50
2017-09-29T20:41:02.197Z,45.22
2017-09-29T20:43:30.498Z,56.50
2017-09-29T20:45:58.011Z,57.28
2017-09-29T20:48:25.534Z,39.72
2017-09-29T20:50:53.050Z,35.40
2017-09-29T20:53:21.338Z,49.63
2017-09-29T20:55:48.851Z,34.65
2017-09-29T20:58:16.393Z,29.75
2017-09-29T21:00:43.889Z,34.08
2017-09-29T21:03:11.416Z,47.58
2017-09-29T21:05:38.924Z,46.50
2017-09-29T21:08:07.218Z,35.30
2017-09-29T21:10:35.491Z,33.30
2017-09-29T21:13:03.786Z,31.58
2017-09-29T21:15:31.313Z,55.47
2017-09-29T21:17:58.841Z,40.72
2017-09-29T21:20:26.345Z,33.55
2017-09-29T21:22:53.890Z,56.33
2017-09-29T21:25:22.154Z,38.22
2017-09-29T21:27:49.673Z,57.53
2017-09-29T21:30:17.170Z,40.60
2017-09-29T21:32:44.692Z,37.53
2017-09-29T21:35:12.199Z,30.88
2017-09-29T21:37:40.462Z,27.37
2017-09-29T21:40:07.987Z,29.90
2017-09-29T21:42:35.497Z,32.85
2017-09-29T21:45:03.051Z,35.28
2017-09-29T21:47:30.558Z,36.28
2017-09-29T21:49:58.085Z,36.30
2017-09-29T21:52:25.618Z,39.85
2017-09-29T21:54:53.142Z,37.40
2017-09-29T21:57:20.651Z,34.03
2017-09-29T21:59:48.178Z,44.15
2017-09-29T22:02:15.679Z,35.10
2017-09-29T22:04:43.200Z,37.50
2017-09-29T22:07:10.711Z,31.12
2017-09-29T22:09:38.246Z,51.67
2017-09-29T22:12:06.520Z,51.58
2017-09-29T22:14:34.815Z,36.20
2017-09-29T22:17:03.090Z,46.70
2017-09-29T22:19:31.387Z,33.40
2017-09-29T22:21:58.908Z,33.33
2017-09-29T22:24:27.205Z,33.17
2017-09-29T22:26:54.715Z,30.80
2017-09-29T22:29:22.233Z,47.78
2017-09-29T22:31:49.742Z,42.95
2017-09-29T22:34:17.274Z,63.35
2017-09-29T22:36:44.781Z,31.37
2017-09-29T22:39:13.074Z,35.03
2017-09-29T22:41:40.618Z,35.00
2017-09-29T22:44:08.146Z,30.15
2017-09-29T22:46:35.658Z,30.42
2017-09-29T22:49:03.235Z,30.62
2017-09-29T22:51:30.730Z,29.95
2017-09-29T22:53:59.018Z,32.35
2017-09-29T22:56:26.517Z,41.03
2017-09-29T22:58:54.043Z,33.03
2017-09-29T23:01:21.554Z,30.98
2017-09-29T23:03:49.131Z,30.25
2017-09-29T23:06:16.642Z,43.03
2017-09-29T23:08:44.933Z,29.02
2017-09-29T23:11:12.433Z,34.00
2017-09-29T23:13:40.723Z,31.23
2017-09-29T23:16:08.270Z,29.65
2017-09-29T23:18:35.807Z,32.15
2017-09-29T23:21:03.322Z,31.45
2017-09-29T23:23:31.605Z,32.13
2017-09-29T23:25:59.889Z,32.17
2017-09-29T23:28:27.419Z,28.60
2017-09-29T23:30:54.930Z,27.23
2017-09-29T23:33:23.218Z,30.10
2017-09-29T23:35:50.731Z,25.00
2017-09-29T23:38:18.262Z,24.65
2017-09-29T23:40:45.761Z,25.80
2017-09-29T23:43:13.328Z,28.25
2017-09-29T23:45:41.639Z,27.05
2017-09-29T23:48:09.144Z,25.77
2017-09-29T23:50:36.718Z,27.00
2017-09-29T23:53:04.225Z,27.35
2017-09-29T23:55:31.766Z,31.12
2017-09-29T23:58:00.048Z,25.23
